Airport Name : Waynesville Rgnl Arpt At Forney Fld

Other Name : Forney Fld

ICAO : KTBN

IATA : TBN

FAA : TBN

Latitude : 37.741631

Longitude : -92.140736

Country : United States

Local Date and Time : 04 Dec 2020 07:49

 

TAF (Terminal Aerodrome Forecast)

 

METAR (METeorological Aerodrome Report)

KTBN 041256Z AUTO 23004KT 10SM CLR 01/01 A3007 RMK AO2 SLP193 T00120006

KTBN 041211Z AUTO 25004KT 10SM SCT009 02/01 A3007 RMK AO2 SLP193

KTBN 041156Z AUTO 25003KT 10SM BKN008 BKN028 03/02 A3007 RMK AO2 SLP192 70007 T00270017 10036 20027 57003

KTBN 041141Z AUTO 25004KT 10SM BKN008 OVC025 03/02 A3006 RMK AO2 CIG 008V025 BKN V SCT SLP189 58003

KTBN 041056Z AUTO 00000KT 10SM FEW009 OVC022 03/02 A3007 RMK AO2 CIG 021 RWY33 SLP192 T00310019

KTBN 040956Z AUTO 26003KT 10SM OVC021 03/02 A3007 RMK AO2 CIG 020 RWY33 SLP192 T00320019

To Charter a Jet Click here.